createdAt,value
2023-04-06T00:02:27.869Z,92.95
2023-04-06T00:06:29.523Z,91.78
2023-04-06T00:10:30.928Z,91.06
2023-04-06T00:14:32.292Z,90.41
2023-04-06T00:18:33.916Z,89.54
2023-04-06T00:22:35.586Z,90.96
2023-04-06T00:26:36.970Z,96.47
2023-04-06T00:30:38.543Z,96.44
2023-04-06T00:34:39.930Z,97.36
2023-04-06T00:38:41.586Z,98.27
2023-04-06T00:42:43.117Z,91.59
2023-04-06T00:46:44.725Z,89.31
2023-04-06T00:50:47.037Z,86.74
2023-04-06T00:54:48.533Z,88.04
2023-04-06T00:58:51.263Z,88.63
2023-04-06T01:02:53.490Z,87.84
2023-04-06T01:06:58.471Z,87.33
2023-04-06T01:11:06.848Z,88.66
2023-04-06T01:15:09.095Z,89.95
2023-04-06T01:19:14.736Z,92.64
2023-04-06T01:23:21.243Z,96.93
2023-04-06T01:27:23.640Z,100.00
2023-04-06T01:31:36.385Z,100.00
2023-04-06T01:35:37.958Z,97.15
2023-04-06T01:39:51.861Z,92.93
2023-04-06T01:44:02.979Z,92.65
2023-04-06T01:48:06.283Z,91.25
2023-04-06T01:52:07.803Z,94.07
2023-04-06T01:56:12.695Z,92.75
2023-04-06T02:00:19.811Z,90.55
2023-04-06T02:04:27.358Z,90.72
2023-04-06T02:08:38.952Z,87.95
2023-04-06T02:12:40.576Z,93.72
2023-04-06T02:16:45.733Z,97.86
2023-04-06T02:20:47.254Z,99.24
2023-04-06T02:24:48.726Z,97.00
2023-04-06T02:28:50.285Z,94.86
2023-04-06T02:32:52.159Z,94.16
2023-04-06T02:36:54.017Z,93.11
2023-04-06T02:40:55.781Z,91.34
2023-04-06T02:44:59.825Z,91.76
2023-04-06T02:49:06.844Z,93.49
2023-04-06T02:53:09.806Z,97.85
2023-04-06T02:57:13.315Z,94.15
2023-04-06T03:01:19.229Z,98.46
2023-04-06T03:05:22.341Z,97.86
2023-04-06T03:09:23.999Z,92.26
2023-04-06T03:13:25.676Z,90.22
2023-04-06T03:17:30.523Z,89.63
2023-04-06T03:21:36.619Z,87.02
2023-04-06T03:25:39.395Z,88.89
2023-04-06T03:29:42.063Z,88.03
2023-04-06T03:33:47.363Z,91.88
2023-04-06T03:37:58.484Z,93.52
2023-04-06T03:42:01.123Z,89.46
2023-04-06T03:46:11.150Z,95.90
2023-04-06T03:50:12.855Z,90.94
2023-04-06T03:54:14.510Z,86.66
2023-04-06T03:58:16.018Z,85.56
2023-04-06T04:02:17.480Z,84.64
2023-04-06T04:06:18.913Z,84.41
2023-04-06T04:10:21.172Z,84.17
2023-04-06T04:14:22.635Z,83.29
2023-04-06T04:18:24.823Z,82.67
2023-04-06T04:22:26.183Z,83.24
2023-04-06T04:26:27.551Z,84.65
2023-04-06T04:30:29.706Z,83.82
2023-04-06T04:34:32.048Z,82.74
2023-04-06T04:38:33.640Z,82.55
2023-04-06T04:42:35.701Z,84.85
2023-04-06T04:46:40.250Z,91.61
2023-04-06T04:50:42.567Z,94.15
2023-04-06T04:54:44.305Z,89.29
2023-04-06T04:58:51.787Z,85.39
2023-04-06T05:02:53.375Z,77.98
2023-04-06T05:07:11.384Z,78.74
2023-04-06T05:11:15.394Z,82.37
2023-04-06T05:15:21.341Z,84.36
2023-04-06T05:19:26.428Z,74.03
2023-04-06T05:23:27.864Z,68.78
2023-04-06T05:27:29.830Z,71.07
2023-04-06T05:31:31.670Z,74.56
2023-04-06T05:35:33.720Z,72.51
2023-04-06T05:39:42.991Z,70.53
2023-04-06T05:43:45.299Z,70.53
2023-04-06T05:47:47.282Z,72.51
2023-04-06T05:51:57.660Z,73.93
2023-04-06T05:56:03.302Z,78.50
2023-04-06T06:00:07.779Z,81.51
2023-04-06T06:04:21.237Z,83.54
2023-04-06T06:08:26.149Z,85.14
2023-04-06T06:12:28.247Z,86.77
2023-04-06T06:16:30.254Z,86.58
2023-04-06T06:20:31.835Z,86.20
2023-04-06T06:24:37.343Z,91.46
2023-04-06T06:28:39.020Z,89.15
2023-04-06T06:32:40.661Z,89.61
2023-04-06T06:36:42.190Z,89.46
2023-04-06T06:40:47.257Z,84.94
2023-04-06T06:44:50.434Z,84.79
2023-04-06T06:48:52.552Z,92.17
2023-04-06T06:52:54.060Z,94.93
2023-04-06T06:56:55.852Z,92.96
2023-04-06T07:00:59.175Z,88.32
2023-04-06T07:05:05.969Z,92.73
2023-04-06T07:09:11.722Z,93.53
2023-04-06T07:13:13.276Z,93.51
2023-04-06T07:17:15.391Z,85.41
2023-04-06T07:21:17.245Z,86.27
2023-04-06T07:25:18.716Z,89.91
2023-04-06T07:29:20.086Z,93.07
2023-04-06T07:33:21.498Z,89.95
2023-04-06T07:37:23.016Z,81.51
2023-04-06T07:41:24.948Z,86.69
2023-04-06T07:45:26.795Z,87.46
2023-04-06T07:49:29.001Z,82.58
2023-04-06T07:53:31.688Z,88.12
2023-04-06T07:57:33.341Z,83.98
2023-04-06T08:01:34.904Z,81.65
2023-04-06T08:05:36.286Z,76.17
2023-04-06T08:09:38.207Z,72.51
2023-04-06T08:13:39.581Z,76.55
2023-04-06T08:17:41.197Z,72.66
2023-04-06T08:21:43.422Z,74.65
2023-04-06T08:25:44.845Z,72.61
2023-04-06T08:29:46.413Z,71.77
2023-04-06T08:33:47.827Z,65.73
2023-04-06T08:37:49.243Z,62.07
2023-04-06T08:41:52.837Z,59.52
2023-04-06T08:45:54.205Z,60.22
2023-04-06T08:49:56.674Z,59.36
2023-04-06T08:53:59.413Z,55.62
2023-04-06T08:58:01.386Z,58.24
2023-04-06T09:02:08.560Z,57.51
2023-04-06T09:06:10.728Z,54.53
2023-04-06T09:10:12.101Z,49.81
2023-04-06T09:14:13.660Z,48.32
2023-04-06T09:18:29.213Z,49.13
2023-04-06T09:22:38.370Z,46.67
2023-04-06T09:26:48.933Z,47.34
2023-04-06T09:30:50.880Z,46.91
2023-04-06T09:34:52.270Z,48.17
2023-04-06T09:39:04.055Z,45.33
2023-04-06T09:43:07.907Z,42.21
2023-04-06T09:47:09.454Z,41.12
2023-04-06T09:51:14.773Z,40.34
2023-04-06T09:55:28.198Z,41.06
2023-04-06T09:59:49.147Z,39.54
2023-04-06T10:03:58.019Z,37.14
2023-04-06T10:08:07.689Z,38.28
2023-04-06T10:12:10.273Z,39.69
2023-04-06T10:16:15.086Z,35.08
2023-04-06T10:20:23.344Z,37.25
2023-04-06T10:24:24.768Z,35.01
2023-04-06T10:28:31.202Z,36.45
2023-04-06T10:32:37.633Z,35.42
2023-04-06T10:36:39.111Z,34.01
2023-04-06T10:40:43.940Z,33.14
2023-04-06T10:44:45.888Z,33.34
2023-04-06T10:48:47.850Z,32.37
2023-04-06T10:53:00.972Z,30.93
2023-04-06T10:57:02.404Z,31.20
2023-04-06T11:01:04.125Z,32.15
2023-04-06T11:05:06.253Z,31.61
2023-04-06T11:09:07.757Z,31.03
2023-04-06T11:19:32.508Z,33.76
2023-04-06T11:23:33.882Z,31.65
2023-04-06T11:27:36.402Z,31.71
2023-04-06T11:31:42.324Z,32.23
2023-04-06T11:35:43.714Z,32.96
2023-04-06T11:39:53.240Z,32.05
2023-04-06T11:43:55.955Z,31.20
2023-04-06T11:48:00.422Z,32.64
2023-04-06T11:52:01.992Z,31.93
2023-04-06T11:56:03.523Z,32.27
2023-04-06T12:00:05.711Z,29.76
2023-04-06T12:04:07.449Z,30.15
2023-04-06T12:08:08.847Z,29.52
2023-04-06T12:12:10.412Z,30.65
2023-04-06T12:16:11.841Z,30.15
2023-04-06T12:20:25.139Z,28.20
2023-04-06T12:24:28.659Z,28.25
2023-04-06T12:28:30.074Z,27.55
2023-04-06T12:32:31.566Z,28.06
2023-04-06T12:36:33.119Z,30.28
2023-04-06T12:40:38.601Z,27.73
2023-04-06T12:44:40.201Z,28.65
2023-04-06T12:48:41.901Z,28.31
2023-04-06T12:52:43.532Z,27.88
2023-04-06T12:56:44.994Z,29.70
2023-04-06T13:00:48.178Z,29.21
2023-04-06T13:04:50.307Z,28.98
2023-04-06T13:08:51.820Z,29.36
2023-04-06T13:12:53.583Z,29.33
2023-04-06T13:16:55.164Z,29.40
2023-04-06T13:20:57.661Z,27.53
2023-04-06T13:24:59.014Z,28.63
2023-04-06T13:29:01.741Z,29.20
2023-04-06T13:33:03.544Z,28.32
2023-04-06T13:37:04.962Z,27.43
2023-04-06T13:41:06.734Z,28.95
2023-04-06T13:45:08.716Z,28.91
2023-04-06T13:49:10.613Z,28.49
2023-04-06T13:53:12.412Z,29.95
2023-04-06T13:57:13.822Z,28.25
2023-04-06T14:01:15.485Z,28.47
2023-04-06T14:05:17.074Z,29.15
2023-04-06T14:09:18.456Z,28.47
2023-04-06T14:13:20.132Z,28.56
2023-04-06T14:17:21.587Z,30.47
2023-04-06T14:21:23.243Z,30.05
2023-04-06T14:25:24.618Z,27.78
2023-04-06T14:29:26.067Z,29.33
2023-04-06T14:33:28.285Z,28.84
2023-04-06T14:37:29.654Z,27.93
2023-04-06T14:41:32.045Z,30.28
2023-04-06T14:45:37.673Z,30.42
2023-04-06T14:49:39.054Z,29.43
2023-04-06T14:53:40.771Z,30.34
2023-04-06T14:57:42.214Z,29.96
2023-04-06T15:01:43.684Z,28.60
2023-04-06T15:05:45.429Z,28.01
2023-04-06T15:09:46.832Z,28.45
2023-04-06T15:13:48.442Z,29.27
2023-04-06T15:17:49.888Z,28.86
2023-04-06T15:21:51.293Z,29.15
2023-04-06T15:25:52.955Z,29.22
2023-04-06T15:29:54.836Z,29.46
2023-04-06T15:33:56.740Z,29.03
2023-04-06T15:37:58.213Z,29.26
2023-04-06T15:41:59.825Z,29.76
2023-04-06T15:46:03.201Z,29.66
2023-04-06T15:50:06.270Z,28.78
2023-04-06T15:54:07.643Z,28.16
2023-04-06T15:58:09.004Z,29.35
2023-04-06T16:02:10.491Z,28.60
2023-04-06T16:06:12.357Z,27.45
2023-04-06T16:10:13.813Z,28.76
2023-04-06T16:14:15.391Z,29.17
2023-04-06T16:18:16.759Z,28.22
2023-04-06T16:22:18.232Z,28.01
2023-04-06T16:26:21.946Z,28.23
2023-04-06T16:30:25.949Z,29.17
2023-04-06T16:34:32.111Z,29.78
2023-04-06T16:38:35.625Z,28.38
2023-04-06T16:42:37.106Z,29.05
2023-04-06T16:46:38.922Z,30.66
2023-04-06T16:50:40.327Z,31.00
2023-04-06T16:54:41.724Z,30.65
2023-04-06T16:58:43.243Z,31.97
2023-04-06T17:02:47.684Z,32.32
2023-04-06T17:06:50.033Z,32.98
2023-04-06T17:10:59.305Z,34.68
2023-04-06T17:15:04.504Z,33.04
2023-04-06T17:19:05.951Z,34.93
2023-04-06T17:23:07.331Z,35.51
2023-04-06T17:27:08.695Z,36.46
2023-04-06T17:31:11.614Z,36.42
2023-04-06T17:35:13.289Z,37.66
2023-04-06T17:39:14.641Z,37.89
2023-04-06T17:43:16.100Z,38.89
2023-04-06T17:47:17.658Z,39.49
2023-04-06T17:51:20.525Z,39.65
2023-04-06T17:55:22.464Z,39.41
2023-04-06T17:59:23.847Z,40.30
2023-04-06T18:03:25.410Z,40.19
2023-04-06T18:07:26.990Z,41.61
2023-04-06T18:11:30.901Z,41.57
2023-04-06T18:15:34.968Z,43.09
2023-04-06T18:19:36.406Z,43.00
2023-04-06T18:23:38.268Z,43.07
2023-04-06T18:27:40.121Z,43.68
2023-04-06T18:31:41.488Z,44.64
2023-04-06T18:35:42.909Z,44.00
2023-04-06T18:39:44.312Z,44.64
2023-04-06T18:43:45.720Z,45.82
2023-04-06T18:47:47.155Z,47.30
2023-04-06T18:51:48.663Z,46.65
2023-04-06T18:55:50.385Z,49.58
2023-04-06T18:59:51.755Z,51.53
2023-04-06T19:03:55.029Z,50.98
2023-04-06T19:07:56.744Z,52.52
2023-04-06T19:11:58.252Z,58.48
2023-04-06T19:16:00.788Z,58.72
2023-04-06T19:20:02.640Z,59.15
2023-04-06T19:24:04.327Z,60.27
2023-04-06T19:28:06.089Z,64.57
2023-04-06T19:32:08.402Z,65.79
2023-04-06T19:36:10.006Z,65.11
2023-04-06T19:40:11.805Z,64.80
2023-04-06T19:44:13.237Z,63.04
2023-04-06T19:48:14.696Z,62.97
2023-04-06T19:52:16.156Z,63.11
2023-04-06T19:56:17.697Z,63.31
2023-04-06T20:00:19.223Z,62.58
2023-04-06T20:04:20.789Z,63.36
2023-04-06T20:08:22.738Z,61.33
2023-04-06T20:12:24.165Z,62.47
2023-04-06T20:16:25.646Z,65.51
2023-04-06T20:20:27.293Z,64.99
2023-04-06T20:24:28.924Z,66.01
2023-04-06T20:28:31.449Z,65.03
2023-04-06T20:32:33.714Z,65.77
2023-04-06T20:36:35.611Z,65.68
2023-04-06T20:40:37.078Z,65.29
2023-04-06T20:44:38.755Z,65.05
2023-04-06T20:48:40.516Z,67.30
2023-04-06T20:52:41.866Z,64.91
2023-04-06T20:56:43.788Z,65.14
2023-04-06T21:00:45.429Z,66.73
2023-04-06T21:04:46.974Z,67.56
2023-04-06T21:08:48.412Z,67.83
2023-04-06T21:12:50.600Z,66.27
2023-04-06T21:16:52.502Z,64.42
2023-04-06T21:20:53.857Z,67.04
2023-04-06T21:24:55.436Z,68.33
2023-04-06T21:28:56.808Z,66.37
2023-04-06T21:32:58.188Z,64.98
2023-04-06T21:36:59.662Z,67.33
2023-04-06T21:41:01.114Z,66.47
2023-04-06T21:45:02.553Z,66.45
2023-04-06T21:49:03.919Z,68.72
2023-04-06T21:53:05.354Z,67.19
2023-04-06T21:57:06.790Z,67.20
2023-04-06T22:01:11.463Z,65.28
2023-04-06T22:05:14.026Z,65.29
2023-04-06T22:09:15.485Z,65.89
2023-04-06T22:13:16.857Z,63.93
2023-04-06T22:17:18.298Z,65.04
2023-04-06T22:21:19.804Z,65.91
2023-04-06T22:25:21.187Z,67.17
2023-04-06T22:29:22.842Z,68.41
2023-04-06T22:33:24.252Z,67.69
2023-04-06T22:37:25.727Z,66.05
2023-04-06T22:41:27.876Z,68.84
2023-04-06T22:45:29.334Z,68.90
2023-04-06T22:49:30.875Z,67.44
2023-04-06T22:53:32.260Z,71.35
2023-04-06T22:57:33.664Z,69.82
2023-04-06T23:01:35.171Z,71.76
2023-04-06T23:05:36.654Z,70.84
2023-04-06T23:09:38.043Z,74.75
2023-04-06T23:13:39.605Z,75.09
2023-04-06T23:17:41.053Z,82.21
2023-04-06T23:21:42.544Z,77.36
2023-04-06T23:25:43.915Z,80.11
2023-04-06T23:29:45.599Z,78.37
2023-04-06T23:33:46.996Z,78.85
2023-04-06T23:37:48.370Z,77.52
2023-04-06T23:41:49.738Z,76.92
2023-04-06T23:45:51.159Z,77.13
2023-04-06T23:49:52.607Z,76.04
2023-04-06T23:53:53.965Z,75.28
2023-04-06T23:57:55.878Z,75.26
